Time;durP1;ratioP1;P1;durP2;ratioP2;P2;SDS_P1;SDS_P2;PMS_P1;PMS_P2;Temp;Humidity;BMP_temperature;BMP_pressure;BME280_temperature;BME280_humidity;BME280_pressure;Samples;Min_cycle;Max_cycle;Signal;HPM_P1;HPM_P2
2023/06/11 00:00:28;;;;;;;;;;;;;;;17.20;100.00;98929.03;5034598;28;867;-54
2023/06/11 00:02:56;;;;;;;;;;;;;;;17.05;100.00;98928.91;5034512;28;912;-55
2023/06/11 00:05:28;;;;;;;;;;;;;;;16.87;100.00;98924.13;5034322;28;1945;-55
2023/06/11 00:07:55;;;;;;;;;;;;;;;16.70;100.00;98926.44;5034580;28;847;-54
2023/06/11 00:10:23;;;;;;;;;;;;;;;16.57;100.00;98919.47;5034313;28;926;-54
2023/06/11 00:12:50;;;;;;;;;;;;;;;16.52;100.00;98918.84;5034045;28;1279;-55
2023/06/11 00:15:17;;;;;;;;;;;;;;;16.80;100.00;98921.66;5034297;28;844;-55
2023/06/11 00:17:43;;;;;;;;;;;;;;;17.22;100.00;98922.97;5034188;28;812;-54
2023/06/11 00:20:11;;;;;;;;;;;;;;;17.51;100.00;98914.81;5034182;28;879;-56
2023/06/11 00:22:38;;;;;;;;;;;;;;;17.71;100.00;98919.88;5034109;28;894;-56
2023/06/11 00:25:06;;;;;;;;;;;;;;;17.87;100.00;98923.53;5034174;28;1969;-56
2023/06/11 00:27:33;;;;;;;;;;;;;;;17.93;100.00;98921.66;5033706;28;836;-54
2023/06/11 00:30:03;;;;;;;;;;;;;;;17.95;100.00;98922.72;5033905;28;938;-54
2023/06/11 00:32:30;;;;;;;;;;;;;;;17.91;100.00;98924.13;5033889;28;914;-55
2023/06/11 00:34:57;;;;;;;;;;;;;;;17.87;100.00;98926.34;5033871;28;903;-55
2023/06/11 00:37:23;;;;;;;;;;;;;;;17.85;100.00;98923.22;5034032;28;927;-55
2023/06/11 00:39:50;;;;;;;;;;;;;;;17.84;100.00;98927.28;5033837;28;827;-53
2023/06/11 00:42:19;;;;;;;;;;;;;;;17.82;100.00;98921.38;5033744;28;895;-55
2023/06/11 00:44:47;;;;;;;;;;;;;;;17.80;100.00;98924.63;5033565;28;1949;-54
2023/06/11 00:47:15;;;;;;;;;;;;;;;17.82;100.00;98919.38;5033673;28;851;-55
2023/06/11 00:49:41;;;;;;;;;;;;;;;17.81;100.00;98922.59;5033880;28;883;-54
2023/06/11 00:52:13;;;;;;;;;;;;;;;17.81;100.00;98926.16;5032335;28;919;-55
2023/06/11 00:54:40;;;;;;;;;;;;;;;17.90;100.00;98925.38;5032317;28;911;-55
2023/06/11 00:57:07;;;;;;;;;;;;;;;17.99;100.00;98930.13;5033386;28;918;-55
2023/06/11 00:59:34;;;;;;;;;;;;;;;18.07;100.00;98928.53;5033475;28;820;-55
2023/06/11 01:02:06;;;;;;;;;;;;;;;18.08;100.00;98932.91;5033361;28;820;-55
2023/06/11 01:04:35;;;;;;;;;;;;;;;18.10;100.00;98933.97;5033324;28;1922;-56
2023/06/11 01:07:06;;;;;;;;;;;;;;;18.09;100.00;98940.03;5033297;28;1021;-56
2023/06/11 01:09:33;;;;;;;;;;;;;;;18.01;100.00;98936.03;5033234;28;860;-53
2023/06/11 01:12:02;;;;;;;;;;;;;;;17.93;100.00;98938.41;5033137;28;1309;-53
2023/06/11 01:14:28;;;;;;;;;;;;;;;17.84;100.00;98938.47;5033184;28;851;-55
2023/06/11 01:17:17;;;;;;;;;;;;;;;17.81;100.00;98936.59;5033095;28;812;-53
2023/06/11 01:19:56;;;;;;;;;;;;;;;17.83;100.00;98931.31;5033053;28;1187;-54
2023/06/11 01:22:29;;;;;;;;;;;;;;;17.85;100.00;98934.41;5032961;28;871;-56
2023/06/11 01:24:59;;;;;;;;;;;;;;;17.87;100.00;98932.69;5032787;28;1914;-55
2023/06/11 01:27:29;;;;;;;;;;;;;;;17.87;100.00;98935.47;5032919;28;828;-54
2023/06/11 01:29:57;;;;;;;;;;;;;;;17.86;100.00;98928.38;5032838;28;848;-55
2023/06/11 01:32:25;;;;;;;;;;;;;;;17.86;100.00;98928.38;5031795;28;848;-54
2023/06/11 01:34:59;;;;;;;;;;;;;;;17.87;100.00;98935.47;5033323;28;823;-55
2023/06/11 01:37:29;;;;;;;;;;;;;;;17.87;100.00;98940.31;5032622;28;866;-54
2023/06/11 01:39:59;;;;;;;;;;;;;;;17.80;100.00;98944.19;5032206;28;848;-55
2023/06/11 01:42:25;;;;;;;;;;;;;;;17.74;100.00;98938.47;5032651;28;824;-54
2023/06/11 01:44:52;;;;;;;;;;;;;;;17.70;100.00;98946.25;5032488;28;1945;-55
2023/06/11 01:47:20;;;;;;;;;;;;;;;17.68;100.00;98947.97;5032512;28;884;-55
2023/06/11 01:49:46;;;;;;;;;;;;;;;17.63;100.00;98951.41;5032495;28;883;-55
2023/06/11 01:52:13;;;;;;;;;;;;;;;17.59;100.00;98950.81;5032690;28;881;-56
2023/06/11 01:54:40;;;;;;;;;;;;;;;17.54;100.00;98950.19;5032355;28;823;-54
2023/06/11 01:57:07;;;;;;;;;;;;;;;17.51;100.00;98953.16;5032346;28;803;-55
2023/06/11 01:59:32;;;;;;;;;;;;;;;17.49;100.00;98959.19;5032282;28;865;-52
2023/06/11 02:02:00;;;;;;;;;;;;;;;17.46;100.00;98951.00;5032287;28;875;-54
2023/06/11 02:04:26;;;;;;;;;;;;;;;17.42;100.00;98948.38;5032096;28;1934;-55
2023/06/11 02:06:53;;;;;;;;;;;;;;;17.41;100.00;98951.63;5032519;28;809;-56
2023/06/11 02:09:19;;;;;;;;;;;;;;;17.38;100.00;98955.38;5032101;28;836;-52
2023/06/11 02:11:46;;;;;;;;;;;;;;;17.35;100.00;98949.47;5031710;28;1210;-54
2023/06/11 02:14:13;;;;;;;;;;;;;;;17.34;100.00;98952.72;5032042;28;863;-55
2023/06/11 02:16:39;;;;;;;;;;;;;;;17.32;100.00;98949.63;5032299;28;879;-55
2023/06/11 02:19:07;;;;;;;;;;;;;;;17.27;100.00;98955.88;5032217;28;864;-55
2023/06/11 02:21:34;;;;;;;;;;;;;;;17.26;100.00;98955.09;5032023;28;835;-55
2023/06/11 02:24:01;;;;;;;;;;;;;;;17.25;100.00;98955.56;5031845;28;815;-55
2023/06/11 02:26:28;;;;;;;;;;;;;;;17.20;100.00;98956.97;5031777;28;1910;-55
2023/06/11 02:28:54;;;;;;;;;;;;;;;17.13;100.00;98960.06;5031821;28;859;-55
2023/06/11 02:31:21;;;;;;;;;;;;;;;17.06;100.00;98966.75;5031773;28;886;-55
2023/06/11 02:33:48;;;;;;;;;;;;;;;17.04;100.00;98958.06;5031781;28;828;-54
2023/06/11 02:36:14;;;;;;;;;;;;;;;17.07;100.00;98956.34;5031749;28;886;-55
2023/06/11 02:38:41;;;;;;;;;;;;;;;17.04;100.00;98960.09;5031668;28;877;-56
2023/06/11 02:41:07;;;;;;;;;;;;;;;17.05;100.00;98956.84;5031630;28;890;-56
2023/06/11 02:43:34;;;;;;;;;;;;;;;17.10;100.00;98966.59;5031855;28;832;-55
2023/06/11 02:46:01;;;;;;;;;;;;;;;17.13;100.00;98968.44;5031534;28;1947;-55
2023/06/11 02:48:28;;;;;;;;;;;;;;;17.14;100.00;98964.41;5031553;28;835;-55
2023/06/11 02:50:54;;;;;;;;;;;;;;;17.13;100.00;98971.22;5031468;28;851;-54
2023/06/11 02:53:20;;;;;;;;;;;;;;;17.14;100.00;98972.78;5031553;28;800;-55
2023/06/11 02:55:47;;;;;;;;;;;;;;;17.18;100.00;98967.81;5031570;28;880;-56
2023/06/11 02:58:15;;;;;;;;;;;;;;;17.22;100.00;98968.44;5031794;28;808;-55
2023/06/11 03:00:42;;;;;;;;;;;;;;;17.28;100.00;98969.38;5031424;28;914;-55
2023/06/11 03:03:09;;;;;;;;;;;;;;;17.28;100.00;98972.16;5031372;28;914;-55
2023/06/11 03:05:35;;;;;;;;;;;;;;;17.27;100.00;98975.41;5031341;28;1914;-54
2023/06/11 03:08:02;;;;;;;;;;;;;;;17.24;100.00;98979.91;5031327;28;828;-55
2023/06/11 03:10:29;;;;;;;;;;;;;;;17.26;100.00;98983.03;5030109;28;1334;-56
2023/06/11 03:12:55;;;;;;;;;;;;;;;17.28;100.00;98990.91;5030978;28;1289;-53
2023/06/11 03:15:22;;;;;;;;;;;;;;;17.32;100.00;98986.72;5031370;28;859;-54
2023/06/11 03:17:48;;;;;;;;;;;;;;;17.41;100.00;98991.53;5031395;28;816;-56
2023/06/11 03:20:15;;;;;;;;;;;;;;;17.51;100.00;98989.47;5031262;28;820;-54
2023/06/11 03:22:42;;;;;;;;;;;;;;;17.60;100.00;98989.44;5031295;28;855;-55
2023/06/11 03:25:09;;;;;;;;;;;;;;;17.69;100.00;98995.00;5031163;28;1918;-56
2023/06/11 03:27:36;;;;;;;;;;;;;;;17.75;100.00;98995.13;5031187;28;840;-55
2023/06/11 03:30:03;;;;;;;;;;;;;;;17.83;100.00;98992.81;5031187;28;887;-55
2023/06/11 03:32:29;;;;;;;;;;;;;;;18.01;100.00;98997.53;5031104;28;956;-55
2023/06/11 03:34:56;;;;;;;;;;;;;;;18.20;100.00;98995.44;5031205;28;820;-54
2023/06/11 03:37:23;;;;;;;;;;;;;;;18.14;100.00;98968.13;5031258;28;903;-55
2023/06/11 03:39:49;;;;;;;;;;;;;;;18.45;100.00;98999.78;5031191;28;832;-54
2023/06/11 03:42:16;;;;;;;;;;;;;;;18.55;100.00;99004.09;5030068;28;1249;-55
2023/06/11 03:44:43;;;;;;;;;;;;;;;18.63;100.00;99005.28;5031628;28;1945;-54
2023/06/11 03:47:10;;;;;;;;;;;;;;;18.74;100.00;99007.53;5031499;28;808;-54
2023/06/11 03:49:36;;;;;;;;;;;;;;;18.83;100.00;99009.50;5031179;28;844;-55
2023/06/11 03:52:03;;;;;;;;;;;;;;;18.91;100.00;99016.28;5031679;28;764;-56
2023/06/11 03:54:29;;;;;;;;;;;;;;;18.96;100.00;99012.81;5030811;28;927;-55
2023/06/11 03:56:57;;;;;;;;;;;;;;;19.02;100.00;99008.09;5030914;28;815;-55
2023/06/11 03:59:24;;;;;;;;;;;;;;;19.09;100.00;99015.34;5031323;28;780;-54
2023/06/11 04:01:50;;;;;;;;;;;;;;;19.20;100.00;99009.97;5032164;28;848;-55
2023/06/11 04:04:17;;;;;;;;;;;;;;;19.35;100.00;99009.97;5034484;28;1867;-54
2023/06/11 04:06:43;;;;;;;;;;;;;;;19.50;100.00;99016.38;5034368;28;836;-54
2023/06/11 04:09:10;;;;;;;;;;;;;;;19.63;100.00;99015.28;5034520;28;844;-55
2023/06/11 04:11:37;;;;;;;;;;;;;;;19.72;100.00;99012.44;5034182;28;1238;-55
2023/06/11 04:14:04;;;;;;;;;;;;;;;19.81;100.00;99014.38;5034318;28;876;-54
2023/06/11 04:16:31;;;;;;;;;;;;;;;19.87;100.00;99016.00;5034271;28;911;-54
2023/06/11 04:18:57;;;;;;;;;;;;;;;19.99;100.00;99019.72;5034243;28;860;-54
2023/06/11 04:21:24;;;;;;;;;;;;;;;20.09;100.00;99020.41;5034160;28;1093;-55
2023/06/11 04:23:51;;;;;;;;;;;;;;;20.15;100.00;99018.44;5032888;28;812;-55
2023/06/11 04:26:20;;;;;;;;;;;;;;;20.24;100.00;99014.75;5033994;28;1967;-53
2023/06/11 04:28:48;;;;;;;;;;;;;;;20.30;100.00;99012.81;5034001;28;919;-55
2023/06/11 04:31:15;;;;;;;;;;;;;;;20.40;99.93;99014.22;5034374;28;824;-55
2023/06/11 04:33:41;;;;;;;;;;;;;;;20.49;98.34;99016.88;5033944;28;828;-55
2023/06/11 04:36:08;;;;;;;;;;;;;;;20.60;96.91;99016.28;5034061;28;1102;-54
2023/06/11 04:38:36;;;;;;;;;;;;;;;20.71;95.87;99024.09;5033808;28;859;-53
2023/06/11 04:41:05;;;;;;;;;;;;;;;20.78;94.09;99018.03;5034119;28;773;-54
2023/06/11 04:43:36;;;;;;;;;;;;;;;20.89;92.74;99018.19;5033903;28;808;-55
2023/06/11 04:46:04;;;;;;;;;;;;;;;21.01;91.92;99014.22;5033878;28;1973;-54
2023/06/11 04:48:34;;;;;;;;;;;;;;;21.15;91.25;99012.59;5033583;28;887;-54
2023/06/11 04:51:02;;;;;;;;;;;;;;;21.23;90.27;99009.34;5033688;28;855;-54
2023/06/11 04:53:29;;;;;;;;;;;;;;;21.30;89.75;99012.50;5033685;28;812;-53
2023/06/11 04:55:57;;;;;;;;;;;;;;;21.40;89.38;99008.25;5033509;28;859;-54
2023/06/11 04:58:24;;;;;;;;;;;;;;;21.50;88.04;99011.69;5033591;28;839;-56
2023/06/11 05:00:52;;;;;;;;;;;;;;;21.60;86.89;99018.69;5033443;28;812;-54
2023/06/11 05:03:19;;;;;;;;;;;;;;;21.77;86.19;99023.69;5033453;28;828;-53
2023/06/11 05:05:49;;;;;;;;;;;;;;;21.87;84.81;99016.63;5033260;28;1949;-54
2023/06/11 05:08:17;;;;;;;;;;;;;;;21.93;83.35;99023.03;5033316;28;978;-54
2023/06/11 05:10:44;;;;;;;;;;;;;;;21.99;82.29;99017.47;5033282;28;900;-56
2023/06/11 05:13:11;;;;;;;;;;;;;;;22.06;81.72;99017.00;5032018;28;1281;-54
2023/06/11 05:15:38;;;;;;;;;;;;;;;22.21;81.53;99017.63;5033171;28;890;-56
2023/06/11 05:18:05;;;;;;;;;;;;;;;22.36;80.57;99019.50;5033256;28;832;-54
2023/06/11 05:20:32;;;;;;;;;;;;;;;22.49;79.28;99019.06;5031734;28;959;-55
2023/06/11 05:23:02;;;;;;;;;;;;;;;22.66;78.35;99022.75;5032875;28;1116;-54
2023/06/11 05:31:35;;;;;;;;;;;;;;;22.99;71.67;99013.66;5032981;28;647;-55
2023/06/11 05:34:02;;;;;;;;;;;;;;;23.06;71.13;99014.47;5032855;28;907;-56
2023/06/11 05:36:29;;;;;;;;;;;;;;;23.19;71.32;99017.59;5032771;28;856;-54
2023/06/11 05:41:58;;;;;;;;;;;;;;;23.31;68.29;99002.25;5032876;28;626;-56
2023/06/11 05:44:25;;;;;;;;;;;;;;;23.54;66.56;99019.97;5033030;28;1957;-54
2023/06/11 05:46:52;;;;;;;;;;;;;;;23.67;66.46;99016.63;5032781;28;812;-54
2023/06/11 05:49:19;;;;;;;;;;;;;;;23.79;64.53;99021.03;5033013;28;844;-51
2023/06/11 05:51:45;;;;;;;;;;;;;;;23.96;65.30;99017.41;5033074;28;871;-55
2023/06/11 05:54:12;;;;;;;;;;;;;;;24.10;62.86;99022.03;5032531;28;860;-56
2023/06/11 05:56:39;;;;;;;;;;;;;;;24.22;62.73;99029.19;5033221;28;805;-55
2023/06/11 05:59:05;;;;;;;;;;;;;;;24.34;60.11;99029.94;5032604;28;891;-56
2023/06/11 06:01:33;;;;;;;;;;;;;;;24.44;60.83;99031.19;5032319;28;824;-53
2023/06/11 06:04:00;;;;;;;;;;;;;;;24.76;58.89;99030.13;5032246;28;871;-54
2023/06/11 06:12:32;;;;;;;;;;;;;;;26.09;53.00;99023.38;5031895;28;1373;-55
2023/06/11 06:14:58;;;;;;;;;;;;;;;26.63;51.49;99021.81;5032029;28;820;-55
2023/06/11 06:20:27;;;;;;;;;;;;;;;27.77;48.05;99016.13;5032514;28;670;-55
2023/06/11 06:22:54;;;;;;;;;;;;;;;28.01;46.39;99020.91;5032664;28;844;-54
2023/06/11 06:25:24;;;;;;;;;;;;;;;28.26;45.86;99022.25;5032208;28;1918;-54
2023/06/11 06:27:51;;;;;;;;;;;;;;;28.32;44.76;99021.41;5032203;28;875;-56
2023/06/11 06:36:23;;;;;;;;;;;;;;;28.59;44.49;99022.19;5031720;28;749;-54
2023/06/11 06:38:50;;;;;;;;;;;;;;;28.63;44.26;99028.31;5031727;28;935;-56
2023/06/11 06:41:16;;;;;;;;;;;;;;;28.49;44.00;99019.03;5031664;28;864;-55
2023/06/11 06:43:43;;;;;;;;;;;;;;;28.64;43.37;99029.84;5031675;28;871;-55
2023/06/11 06:46:10;;;;;;;;;;;;;;;29.01;42.15;99040.19;5031559;28;1949;-56
2023/06/11 06:51:39;;;;;;;;;;;;;;;29.25;41.03;99033.50;5031496;28;656;-56
2023/06/11 06:54:08;;;;;;;;;;;;;;;29.40;40.94;99037.81;5031439;28;922;-57
2023/06/11 06:56:35;;;;;;;;;;;;;;;29.31;40.97;99039.06;5031299;28;871;-54
2023/06/11 07:11:15;;;;;;;;;;;;;;;31.71;36.42;99045.84;5031916;28;1179;-56
2023/06/11 07:13:42;;;;;;;;;;;;;;;32.17;36.18;99048.75;5031788;28;957;-56
2023/06/11 07:16:08;;;;;;;;;;;;;;;32.28;35.25;99056.16;5031654;28;889;-57
2023/06/11 07:18:35;;;;;;;;;;;;;;;31.78;35.36;99056.50;5031607;28;840;-56
2023/06/11 07:21:02;;;;;;;;;;;;;;;31.77;35.46;99057.81;5031627;28;860;-55
2023/06/11 07:23:28;;;;;;;;;;;;;;;32.10;35.86;99061.69;5031542;28;894;-55
2023/06/11 07:25:55;;;;;;;;;;;;;;;32.75;35.08;99055.56;5031385;28;1964;-56
2023/06/11 07:28:22;;;;;;;;;;;;;;;33.61;33.03;99056.75;5031447;28;816;-56
2023/06/11 07:30:49;;;;;;;;;;;;;;;33.63;33.03;99050.44;5031539;28;864;-55
2023/06/11 07:33:18;;;;;;;;;;;;;;;33.92;32.43;99057.28;5031449;28;1207;-56
2023/06/11 07:35:46;;;;;;;;;;;;;;;33.91;32.50;99055.78;5031146;28;867;-55
2023/06/11 07:38:13;;;;;;;;;;;;;;;33.46;31.25;99049.00;5034737;28;879;-57
2023/06/11 07:40:40;;;;;;;;;;;;;;;33.30;31.96;99048.28;5034973;28;881;-56
2023/06/11 07:43:06;;;;;;;;;;;;;;;32.64;33.23;99055.94;5034907;28;812;-55
2023/06/11 07:45:33;;;;;;;;;;;;;;;32.36;33.68;99056.91;5034894;28;1949;-55
2023/06/11 07:48:00;;;;;;;;;;;;;;;33.17;32.51;99053.53;5034816;28;812;-56
2023/06/11 07:50:26;;;;;;;;;;;;;;;33.79;31.27;99051.09;5034631;28;945;-54
2023/06/11 07:52:53;;;;;;;;;;;;;;;34.34;30.71;99070.94;5034766;28;930;-53
2023/06/11 07:55:19;;;;;;;;;;;;;;;34.83;30.62;99068.56;5034928;28;836;-50
2023/06/11 07:57:46;;;;;;;;;;;;;;;34.72;29.55;99074.81;5034638;28;841;-52
2023/06/11 08:00:12;;;;;;;;;;;;;;;34.27;30.04;99079.59;5034791;28;893;-51
2023/06/11 08:02:41;;;;;;;;;;;;;;;33.79;30.45;99062.56;5035642;28;776;-53
2023/06/11 08:05:11;;;;;;;;;;;;;;;33.74;31.50;99070.03;5034919;28;1931;-54
2023/06/11 08:07:38;;;;;;;;;;;;;;;34.39;30.33;99071.28;5034942;28;900;-53
2023/06/11 08:10:05;;;;;;;;;;;;;;;34.97;29.24;99069.75;5034470;28;963;-53
2023/06/11 08:12:32;;;;;;;;;;;;;;;35.19;29.00;99064.34;5034197;28;1384;-52
2023/06/11 08:14:58;;;;;;;;;;;;;;;34.46;29.01;99064.69;5034554;28;820;-50
2023/06/11 08:17:24;;;;;;;;;;;;;;;33.26;30.51;99058.63;5034583;28;896;-51
2023/06/11 08:19:51;;;;;;;;;;;;;;;32.39;31.69;99061.50;5034538;28;808;-53
2023/06/11 08:22:17;;;;;;;;;;;;;;;31.95;32.49;99059.56;5034115;28;923;-52
2023/06/11 08:24:44;;;;;;;;;;;;;;;32.83;31.85;99063.34;5034254;28;1938;-54
2023/06/11 08:27:12;;;;;;;;;;;;;;;33.59;30.28;99062.28;5034206;28;847;-55
2023/06/11 08:29:38;;;;;;;;;;;;;;;33.26;31.02;99059.38;5034122;28;899;-55
2023/06/11 08:32:05;;;;;;;;;;;;;;;33.46;31.44;99060.44;5034100;28;883;-55
2023/06/11 08:34:32;;;;;;;;;;;;;;;33.84;30.87;99056.59;5034198;28;856;-54
2023/06/11 08:37:00;;;;;;;;;;;;;;;33.74;30.86;99058.59;5034129;28;950;-54
2023/06/11 08:39:27;;;;;;;;;;;;;;;33.65;31.51;99059.19;5033930;28;958;-55
2023/06/11 08:41:53;;;;;;;;;;;;;;;34.02;30.43;99057.41;5033929;28;919;-54
2023/06/11 08:44:20;;;;;;;;;;;;;;;34.37;30.32;99066.13;5034117;28;872;-54
2023/06/11 08:46:48;;;;;;;;;;;;;;;34.19;30.40;99064.59;5033918;28;1889;-53
2023/06/11 08:49:23;;;;;;;;;;;;;;;34.38;29.58;99064.78;5032158;28;824;-56
2023/06/11 08:51:50;;;;;;;;;;;;;;;33.75;30.17;99068.69;5033654;28;902;-57
2023/06/11 08:54:18;;;;;;;;;;;;;;;32.98;32.09;99085.44;5033681;28;827;-55
2023/06/11 08:56:44;;;;;;;;;;;;;;;33.02;31.60;99072.25;5033634;28;1046;-54
2023/06/11 08:59:11;;;;;;;;;;;;;;;33.03;32.22;99076.66;5033747;28;926;-51
2023/06/11 09:01:38;;;;;;;;;;;;;;;33.01;32.36;99076.47;5033425;28;863;-51
2023/06/11 09:04:05;;;;;;;;;;;;;;;33.44;31.69;99079.56;5033620;28;828;-54
2023/06/11 09:06:34;;;;;;;;;;;;;;;33.98;31.13;99068.53;5033501;28;1886;-51
2023/06/11 09:09:05;;;;;;;;;;;;;;;34.22;31.31;99081.34;5033325;28;907;-51
2023/06/11 09:11:32;;;;;;;;;;;;;;;34.02;30.74;99080.34;5033086;28;1201;-51
2023/06/11 09:13:58;;;;;;;;;;;;;;;33.90;30.67;99079.28;5033257;28;821;-51
2023/06/11 09:16:25;;;;;;;;;;;;;;;33.47;31.15;99072.66;5033092;28;919;-51
2023/06/11 09:18:53;;;;;;;;;;;;;;;33.31;31.81;99069.13;5032983;28;876;-50
2023/06/11 09:21:22;;;;;;;;;;;;;;;32.93;32.11;99075.72;5033096;28;824;-49
2023/06/11 09:23:49;;;;;;;;;;;;;;;32.85;32.93;99080.69;5033278;28;801;-51
2023/06/11 09:26:21;;;;;;;;;;;;;;;32.96;33.55;99089.63;5032896;28;1910;-55
2023/06/11 09:28:50;;;;;;;;;;;;;;;32.50;33.23;99077.50;5032955;28;859;-53
2023/06/11 09:31:19;;;;;;;;;;;;;;;32.67;33.17;99076.94;5032843;28;945;-53
2023/06/11 09:33:45;;;;;;;;;;;;;;;32.95;32.83;99073.03;5032775;28;817;-51
2023/06/11 09:36:15;;;;;;;;;;;;;;;32.98;32.74;99077.59;5032794;28;887;-54
2023/06/11 09:38:43;;;;;;;;;;;;;;;32.95;33.60;99073.03;5032743;28;895;-55
2023/06/11 10:12:11;;;;;;;;;;;;;;;30.05;39.21;99063.75;5262541;22;1659;-57
2023/06/11 10:14:38;;;;;;;;;;;;;;;29.89;39.70;99065.66;5032116;28;952;-56
2023/06/11 10:17:07;;;;;;;;;;;;;;;30.55;39.21;99060.91;5032145;28;867;-53
2023/06/11 10:19:36;;;;;;;;;;;;;;;31.46;37.98;99049.22;5031995;28;878;-51
2023/06/11 10:22:02;;;;;;;;;;;;;;;32.26;36.28;99053.91;5032041;28;828;-55
2023/06/11 10:24:29;;;;;;;;;;;;;;;32.62;35.72;99044.31;5031920;28;1922;-55
2023/06/11 10:27:10;;;;;;;;;;;;;;;32.97;35.02;99047.47;5031822;28;883;-55
2023/06/11 10:29:38;;;;;;;;;;;;;;;32.43;35.37;99041.09;5031903;28;902;-52
2023/06/11 10:32:14;;;;;;;;;;;;;;;31.28;37.18;99045.34;5031808;28;957;-56
2023/06/11 10:34:41;;;;;;;;;;;;;;;30.58;37.99;99048.38;5032522;28;835;-57
2023/06/11 10:37:09;;;;;;;;;;;;;;;30.61;38.03;99035.84;5030694;28;839;-56
2023/06/11 10:39:35;;;;;;;;;;;;;;;31.64;36.30;99038.75;5032086;28;828;-54
2023/06/11 10:42:03;;;;;;;;;;;;;;;32.47;35.17;99033.63;5032015;28;809;-54
2023/06/11 10:44:30;;;;;;;;;;;;;;;32.98;33.90;99028.94;5031753;28;1898;-56
2023/06/11 10:47:00;;;;;;;;;;;;;;;32.74;33.36;99030.38;5032630;28;796;-56
2023/06/11 10:49:27;;;;;;;;;;;;;;;32.90;32.94;99028.22;5031498;28;966;-55
2023/06/11 10:51:54;;;;;;;;;;;;;;;33.69;31.99;99020.22;5031536;28;851;-56
2023/06/11 10:54:27;;;;;;;;;;;;;;;33.96;31.59;99028.22;5031624;28;907;-56
2023/06/11 10:56:54;;;;;;;;;;;;;;;33.00;32.04;99028.38;5031510;28;820;-58
2023/06/11 10:59:21;;;;;;;;;;;;;;;31.82;33.58;99030.44;5031485;28;922;-57
2023/06/11 11:01:51;;;;;;;;;;;;;;;31.20;34.52;99021.72;5031474;28;879;-56
2023/06/11 11:04:18;;;;;;;;;;;;;;;32.26;33.97;99013.88;5031392;28;983;-56
2023/06/11 11:06:44;;;;;;;;;;;;;;;33.50;31.67;99019.94;5031406;28;1878;-55
2023/06/11 11:09:11;;;;;;;;;;;;;;;34.39;31.13;99020.41;5031421;28;835;-55
2023/06/11 11:11:41;;;;;;;;;;;;;;;34.38;31.11;99024.63;5032331;28;1462;-56
2023/06/11 11:14:07;;;;;;;;;;;;;;;34.49;30.42;99017.66;5035489;28;840;-56
2023/06/11 11:16:33;;;;;;;;;;;;;;;34.96;29.22;99016.53;5035492;28;958;-56
2023/06/11 11:19:00;;;;;;;;;;;;;;;34.14;29.75;99017.59;5035643;28;800;-56
2023/06/11 11:21:27;;;;;;;;;;;;;;;33.24;30.89;99015.50;5035373;28;855;-56
2023/06/11 11:23:54;;;;;;;;;;;;;;;32.28;31.68;99010.41;5035306;28;808;-57
2023/06/11 11:26:20;;;;;;;;;;;;;;;31.60;32.76;99023.34;5035138;28;1961;-55
2023/06/11 11:28:47;;;;;;;;;;;;;;;30.86;33.70;99024.78;5035201;28;874;-56
2023/06/11 11:31:16;;;;;;;;;;;;;;;30.17;34.87;99030.78;5035187;28;962;-57
2023/06/11 11:33:45;;;;;;;;;;;;;;;29.57;35.98;99046.72;5035096;28;862;-56
2023/06/11 11:36:11;;;;;;;;;;;;;;;28.65;38.78;99040.66;5035086;28;848;-54
2023/06/11 11:38:38;;;;;;;;;;;;;;;27.44;41.86;99027.47;5035052;28;820;-55
2023/06/11 11:41:11;;;;;;;;;;;;;;;26.51;44.76;99035.31;5034890;28;808;-56
2023/06/11 11:43:41;;;;;;;;;;;;;;;25.82;47.22;99033.63;5035942;28;784;-56
2023/06/11 11:46:14;;;;;;;;;;;;;;;24.98;52.11;99041.31;5034870;28;1878;-54
2023/06/11 11:48:42;;;;;;;;;;;;;;;24.93;54.83;99039.28;5033544;28;1172;-56
2023/06/11 11:51:08;;;;;;;;;;;;;;;25.12;54.30;99036.63;5034782;28;891;-56
2023/06/11 11:53:36;;;;;;;;;;;;;;;25.43;53.30;99038.28;5035035;28;911;-54
2023/06/11 11:56:04;;;;;;;;;;;;;;;25.63;52.16;99025.03;5034694;28;871;-56
2023/06/11 11:58:40;;;;;;;;;;;;;;;25.85;51.39;99029.72;5034764;28;879;-54
2023/06/11 12:01:09;;;;;;;;;;;;;;;26.08;49.63;99027.50;5034963;28;820;-55
2023/06/11 12:03:39;;;;;;;;;;;;;;;26.24;48.54;99029.41;5034790;28;911;-55
2023/06/11 12:06:07;;;;;;;;;;;;;;;26.43;47.33;99028.69;5034726;28;1943;-56
2023/06/11 12:08:34;;;;;;;;;;;;;;;26.68;46.18;99032.31;5034391;28;854;-54
2023/06/11 12:11:01;;;;;;;;;;;;;;;26.81;45.02;99038.06;5034461;28;1179;-56
2023/06/11 12:13:28;;;;;;;;;;;;;;;26.97;44.43;99027.84;5034504;28;883;-54
2023/06/11 12:15:55;;;;;;;;;;;;;;;27.22;44.45;99039.88;5034450;28;887;-56
2023/06/11 12:18:22;;;;;;;;;;;;;;;27.28;43.88;99040.56;5034404;28;867;-56
2023/06/11 12:20:48;;;;;;;;;;;;;;;27.46;43.68;99046.78;5033019;28;1195;-56
2023/06/11 12:23:15;;;;;;;;;;;;;;;27.84;43.06;99038.94;5033727;28;867;-55
2023/06/11 12:25:43;;;;;;;;;;;;;;;28.11;42.38;99036.22;5034108;28;1967;-56
2023/06/11 12:28:09;;;;;;;;;;;;;;;28.10;42.71;99043.19;5034119;28;851;-57
2023/06/11 12:30:36;;;;;;;;;;;;;;;27.59;45.52;99051.75;5034085;28;835;-55
2023/06/11 12:33:03;;;;;;;;;;;;;;;26.65;49.66;99047.53;5034098;28;819;-55
2023/06/11 12:35:32;;;;;;;;;;;;;;;26.36;51.71;99043.47;5033989;28;903;-55
2023/06/11 12:38:01;;;;;;;;;;;;;;;26.20;53.28;99037.44;5033945;28;891;-57
2023/06/11 12:40:30;;;;;;;;;;;;;;;26.95;51.74;99041.78;5033960;28;832;-56
2023/06/11 12:42:58;;;;;;;;;;;;;;;27.44;50.33;99043.72;5033829;28;882;-57
2023/06/11 12:45:26;;;;;;;;;;;;;;;28.17;48.87;99048.25;5033747;28;1971;-57
2023/06/11 12:47:52;;;;;;;;;;;;;;;28.42;47.74;99033.84;5033707;28;864;-57
2023/06/11 12:50:19;;;;;;;;;;;;;;;28.42;47.45;99036.69;5033955;28;856;-57
2023/06/11 12:52:46;;;;;;;;;;;;;;;28.59;46.74;99030.72;5033698;28;812;-56
2023/06/11 12:55:13;;;;;;;;;;;;;;;28.41;47.12;99029.47;5033697;28;890;-56
2023/06/11 12:57:41;;;;;;;;;;;;;;;28.87;46.46;99024.47;5033554;28;856;-57
2023/06/11 13:00:08;;;;;;;;;;;;;;;30.48;43.20;99031.78;5032353;28;1152;-57
2023/06/11 13:02:36;;;;;;;;;;;;;;;32.17;39.63;99027.97;5033471;28;851;-57
2023/06/11 13:05:03;;;;;;;;;;;;;;;33.52;37.69;99022.97;5033358;28;1940;-57
2023/06/11 13:07:30;;;;;;;;;;;;;;;34.29;36.56;99014.59;5033291;28;921;-58
2023/06/11 13:09:57;;;;;;;;;;;;;;;33.22;37.23;99029.63;5033310;28;891;-57
2023/06/11 13:12:27;;;;;;;;;;;;;;;31.52;39.68;99029.81;5033133;28;1126;-57
2023/06/11 13:14:54;;;;;;;;;;;;;;;30.58;42.64;99032.03;5033218;28;930;-57
2023/06/11 13:17:21;;;;;;;;;;;;;;;31.07;42.84;99027.56;5031908;28;1248;-58
2023/06/11 13:19:48;;;;;;;;;;;;;;;32.30;41.20;99028.53;5033190;28;875;-56
2023/06/11 13:22:16;;;;;;;;;;;;;;;33.42;38.30;99013.50;5033167;28;887;-55
2023/06/11 13:24:42;;;;;;;;;;;;;;;33.79;36.61;99020.34;5032925;28;1969;-54
2023/06/11 13:27:09;;;;;;;;;;;;;;;34.06;36.02;99017.63;5033011;28;887;-57
2023/06/11 13:29:36;;;;;;;;;;;;;;;34.25;35.76;99022.09;5032937;28;906;-58
2023/06/11 13:32:03;;;;;;;;;;;;;;;34.06;35.35;99022.63;5031676;28;931;-57
2023/06/11 13:34:30;;;;;;;;;;;;;;;33.72;35.25;99024.03;5031999;28;828;-57
2023/06/11 13:36:57;;;;;;;;;;;;;;;33.54;35.84;99023.16;5032801;28;868;-57
2023/06/11 13:39:24;;;;;;;;;;;;;;;33.76;35.06;99027.25;5032808;28;860;-57
2023/06/11 13:41:51;;;;;;;;;;;;;;;33.96;34.62;99031.84;5032724;28;875;-57
2023/06/11 13:44:18;;;;;;;;;;;;;;;34.04;34.29;99036.78;5032703;28;876;-57
2023/06/11 13:46:46;;;;;;;;;;;;;;;34.12;34.10;99031.78;5032607;28;1886;-57
2023/06/11 13:49:13;;;;;;;;;;;;;;;34.13;33.93;99036.91;5032637;28;891;-57
2023/06/11 13:51:39;;;;;;;;;;;;;;;34.18;34.19;99046.59;5032471;28;809;-58
2023/06/11 13:54:07;;;;;;;;;;;;;;;33.97;33.96;99041.22;5032567;28;796;-57
2023/06/11 13:56:33;;;;;;;;;;;;;;;33.84;34.57;99044.38;5032500;28;814;-58
2023/06/11 13:59:00;;;;;;;;;;;;;;;33.59;35.50;99035.75;5032440;28;856;-57
2023/06/11 14:01:27;;;;;;;;;;;;;;;33.28;36.73;99028.06;5032695;28;780;-56
2023/06/11 14:03:53;;;;;;;;;;;;;;;33.28;36.63;99030.19;5032438;28;847;-58
2023/06/11 14:06:21;;;;;;;;;;;;;;;33.00;36.50;99036.97;5032214;28;1878;-57
2023/06/11 14:08:48;;;;;;;;;;;;;;;32.68;36.99;99041.25;5032123;28;919;-58
2023/06/11 14:11:16;;;;;;;;;;;;;;;32.55;38.11;99033.66;5032140;28;1227;-56
2023/06/11 14:13:44;;;;;;;;;;;;;;;32.28;38.69;99039.75;5032175;28;855;-57